createdAt,value
2023-04-15T00:00:29.650Z,3.60
2023-04-15T00:03:32.233Z,4.00
2023-04-15T00:06:35.177Z,3.95
2023-04-15T00:09:38.002Z,3.10
2023-04-15T00:12:40.523Z,3.83
2023-04-15T00:15:43.361Z,3.47
2023-04-15T00:18:45.903Z,3.28
2023-04-15T00:21:48.162Z,3.13
2023-04-15T00:24:50.807Z,3.47
2023-04-15T00:27:53.028Z,3.35
2023-04-15T00:30:55.503Z,3.90
2023-04-15T00:33:58.527Z,3.65
2023-04-15T00:37:00.851Z,2.95
2023-04-15T00:40:06.315Z,3.45
2023-04-15T00:43:08.620Z,3.47
2023-04-15T00:46:13.414Z,4.22
2023-04-15T00:49:15.722Z,3.60
2023-04-15T00:52:18.155Z,4.00
2023-04-15T00:55:21.011Z,3.65
2023-04-15T00:58:23.529Z,3.70
2023-04-15T01:01:26.545Z,3.95
2023-04-15T01:04:28.950Z,3.67
2023-04-15T01:07:31.976Z,3.97
2023-04-15T01:10:34.276Z,4.13
2023-04-15T01:13:36.886Z,3.83
2023-04-15T01:16:39.902Z,4.10
2023-04-15T01:19:42.379Z,3.70
2023-04-15T01:22:45.372Z,3.78
2023-04-15T01:25:47.986Z,3.78
2023-04-15T01:28:50.816Z,3.85
2023-04-15T01:31:55.084Z,3.90
2023-04-15T01:34:57.443Z,4.10
2023-04-15T01:38:10.099Z,4.35
2023-04-15T01:41:14.363Z,4.50
2023-04-15T01:44:16.936Z,4.90
2023-04-15T01:47:19.420Z,4.88
2023-04-15T01:50:23.138Z,4.68
2023-04-15T01:53:25.905Z,5.43
2023-04-15T01:56:28.207Z,5.03
2023-04-15T01:59:31.395Z,4.75
2023-04-15T02:02:34.665Z,4.50
2023-04-15T02:05:37.046Z,4.75
2023-04-15T02:08:39.751Z,4.70
2023-04-15T02:11:43.095Z,4.97
2023-04-15T02:14:45.377Z,4.15
2023-04-15T02:17:51.105Z,4.10
2023-04-15T02:20:53.503Z,4.07
2023-04-15T02:23:56.328Z,4.40
2023-04-15T02:26:58.611Z,4.10
2023-04-15T02:30:01.208Z,4.63
2023-04-15T02:33:04.356Z,4.40
2023-04-15T02:36:07.996Z,4.32
2023-04-15T02:39:10.344Z,4.00
2023-04-15T02:42:13.843Z,4.63
2023-04-15T02:45:16.278Z,4.28
2023-04-15T02:48:20.461Z,4.68
2023-04-15T02:51:23.033Z,4.70
2023-04-15T02:54:28.688Z,4.88
2023-04-15T02:57:31.018Z,4.93
2023-04-15T03:00:37.999Z,5.38
2023-04-15T03:03:40.540Z,4.90
2023-04-15T03:06:42.883Z,4.47
2023-04-15T03:09:46.314Z,4.57
2023-04-15T03:12:49.011Z,5.03
2023-04-15T03:15:54.526Z,4.78
2023-04-15T03:18:58.734Z,4.22
2023-04-15T03:22:01.101Z,4.28
2023-04-15T03:25:03.757Z,5.05
2023-04-15T03:28:08.199Z,5.00
2023-04-15T03:31:10.731Z,3.58
2023-04-15T03:34:13.092Z,4.68
2023-04-15T03:37:15.558Z,4.65
2023-04-15T03:40:17.801Z,5.03
2023-04-15T03:43:20.025Z,4.45
2023-04-15T03:46:22.323Z,3.88
2023-04-15T03:49:24.889Z,4.20
2023-04-15T03:52:27.198Z,4.95
2023-04-15T03:55:29.467Z,11.45
2023-04-15T03:58:31.782Z,5.03
2023-04-15T04:01:34.056Z,4.75
2023-04-15T04:04:36.352Z,4.50
2023-04-15T04:07:38.753Z,4.47
2023-04-15T04:10:40.972Z,5.38
2023-04-15T04:13:43.229Z,5.63
2023-04-15T04:16:46.028Z,4.93
2023-04-15T04:19:48.277Z,4.78
2023-04-15T04:22:50.802Z,4.60
2023-04-15T04:25:53.644Z,5.13
2023-04-15T04:28:55.887Z,5.22
2023-04-15T04:31:58.153Z,4.30
2023-04-15T04:35:00.464Z,4.50
2023-04-15T04:38:02.765Z,4.50
2023-04-15T04:41:05.475Z,5.43
2023-04-15T04:44:07.747Z,4.90
2023-04-15T04:47:10.068Z,4.28
2023-04-15T04:50:12.504Z,4.53
2023-04-15T04:53:15.155Z,4.45
2023-04-15T04:56:17.896Z,18.23
2023-04-15T04:59:20.448Z,7.18
2023-04-15T05:02:22.850Z,5.47
2023-04-15T05:05:25.539Z,4.20
2023-04-15T05:08:27.812Z,4.60
2023-04-15T05:11:30.058Z,4.05
2023-04-15T05:14:32.414Z,5.25
2023-04-15T05:17:35.422Z,4.13
2023-04-15T05:20:37.758Z,5.07
2023-04-15T05:23:40.177Z,4.60
2023-04-15T05:26:42.949Z,4.88
2023-04-15T05:29:45.312Z,4.97
2023-04-15T05:32:47.744Z,4.65
2023-04-15T05:35:50.536Z,5.10
2023-04-15T05:38:52.921Z,4.65
2023-04-15T05:41:55.201Z,5.95
2023-04-15T05:44:57.454Z,8.68
2023-04-15T05:47:59.765Z,5.32
2023-04-15T05:51:02.136Z,4.95
2023-04-15T05:54:04.525Z,5.35
2023-04-15T05:57:07.443Z,5.10
2023-04-15T06:00:10.294Z,5.32
2023-04-15T06:03:14.053Z,4.80
2023-04-15T06:06:16.350Z,4.90
2023-04-15T06:09:18.633Z,5.18
2023-04-15T06:12:20.951Z,5.18
2023-04-15T06:15:23.447Z,5.53
2023-04-15T06:18:25.752Z,5.25
2023-04-15T06:21:28.134Z,4.68
2023-04-15T06:24:30.620Z,17.55
2023-04-15T06:27:33.038Z,12.77
2023-04-15T06:30:36.198Z,7.80
2023-04-15T06:36:41.741Z,4.95
2023-04-15T06:39:44.830Z,4.68
2023-04-15T06:45:51.016Z,3.92
2023-04-15T06:48:53.699Z,4.00
2023-04-15T06:51:55.894Z,4.38
2023-04-15T06:54:59.549Z,4.05
2023-04-15T06:58:02.094Z,4.28
2023-04-15T07:01:04.555Z,4.80
2023-04-15T07:04:07.026Z,3.72
2023-04-15T07:07:09.561Z,3.90
2023-04-15T07:10:12.146Z,4.22
2023-04-15T07:13:14.476Z,5.22
2023-04-15T07:16:16.800Z,5.53
2023-04-15T07:19:19.104Z,4.10
2023-04-15T07:22:21.332Z,3.80
2023-04-15T07:25:23.635Z,3.83
2023-04-15T07:28:26.096Z,3.97
2023-04-15T07:31:28.568Z,3.75
2023-04-15T07:34:32.168Z,3.45
2023-04-15T07:37:34.990Z,3.53
2023-04-15T07:40:37.226Z,3.45
2023-04-15T07:43:39.775Z,3.58
2023-04-15T07:46:42.050Z,3.00
2023-04-15T07:49:44.669Z,2.83
2023-04-15T07:52:47.067Z,2.92
2023-04-15T07:55:49.416Z,2.60
2023-04-15T07:58:51.694Z,3.22
2023-04-15T08:01:54.388Z,3.08
2023-04-15T08:04:56.664Z,2.72
2023-04-15T08:07:59.069Z,2.95
2023-04-15T08:11:01.318Z,2.45
2023-04-15T08:14:03.581Z,2.30
2023-04-15T08:17:06.718Z,2.30
2023-04-15T08:20:10.227Z,1.98
2023-04-15T08:23:12.504Z,1.88
2023-04-15T08:26:14.794Z,2.45
2023-04-15T08:29:17.379Z,2.10
2023-04-15T08:32:20.311Z,2.30
2023-04-15T08:35:22.995Z,1.95
2023-04-15T08:38:25.551Z,2.08
2023-04-15T08:41:35.862Z,2.00
2023-04-15T08:44:38.980Z,2.42
2023-04-15T08:47:42.423Z,3.33
2023-04-15T08:50:45.832Z,3.25
2023-04-15T08:53:48.399Z,3.17
2023-04-15T08:56:50.699Z,2.83
2023-04-15T08:59:53.545Z,2.65
2023-04-15T09:02:57.010Z,2.40
2023-04-15T09:05:59.794Z,2.35
2023-04-15T09:09:02.237Z,2.80
2023-04-15T09:12:04.663Z,3.10
2023-04-15T09:15:09.111Z,2.95
2023-04-15T09:18:28.630Z,2.90
2023-04-15T09:21:32.035Z,2.88
2023-04-15T09:24:38.249Z,2.22
2023-04-15T09:27:52.550Z,1.90
2023-04-15T09:31:02.060Z,2.05
2023-04-15T09:34:04.563Z,2.28
2023-04-15T09:37:07.840Z,3.05
2023-04-15T09:40:10.712Z,3.75
2023-04-15T09:43:13.651Z,3.58
2023-04-15T09:46:16.245Z,3.40
2023-04-15T09:49:18.662Z,2.65
2023-04-15T09:52:28.796Z,3.15
2023-04-15T09:55:36.804Z,2.08
2023-04-15T09:58:39.358Z,1.70
2023-04-15T10:01:42.755Z,1.83
2023-04-15T10:04:45.632Z,1.60
2023-04-15T10:07:48.379Z,2.08
2023-04-15T10:10:54.266Z,1.50
2023-04-15T10:14:03.112Z,1.50
2023-04-15T10:17:06.126Z,1.55
2023-04-15T10:20:09.404Z,1.50
2023-04-15T10:23:13.444Z,1.20
2023-04-15T10:26:17.815Z,1.20
2023-04-15T10:29:20.497Z,1.10
2023-04-15T10:32:24.895Z,1.13
2023-04-15T10:35:28.677Z,1.17
2023-04-15T10:38:44.533Z,1.58
2023-04-15T10:41:46.828Z,1.40
2023-04-15T10:44:51.869Z,1.20
2023-04-15T10:47:58.391Z,1.10
2023-04-15T10:51:03.967Z,1.27
2023-04-15T10:54:09.807Z,1.40
2023-04-15T10:57:16.447Z,1.40
2023-04-15T11:00:21.005Z,1.40
2023-04-15T11:03:40.567Z,0.90
2023-04-15T11:06:46.284Z,1.17
2023-04-15T11:09:48.507Z,0.93
2023-04-15T11:12:56.732Z,1.30
2023-04-15T11:16:01.360Z,1.27
2023-04-15T11:19:07.100Z,1.30
2023-04-15T11:22:10.423Z,1.80
2023-04-15T11:25:29.437Z,1.70
2023-04-15T11:28:32.880Z,1.33
2023-04-15T11:31:35.239Z,1.40
2023-04-15T11:34:37.503Z,1.60
2023-04-15T11:37:39.780Z,1.67
2023-04-15T11:40:45.293Z,1.83
2023-04-15T11:43:50.466Z,1.60
2023-04-15T11:46:52.812Z,1.10
2023-04-15T11:49:55.057Z,1.45
2023-04-15T11:53:02.990Z,1.30
2023-04-15T11:56:05.754Z,1.00
2023-04-15T11:59:08.008Z,1.10
2023-04-15T12:02:14.265Z,1.23
2023-04-15T12:05:17.064Z,1.40
2023-04-15T12:08:19.560Z,1.20
2023-04-15T12:11:27.753Z,1.40
2023-04-15T12:14:34.066Z,1.45
2023-04-15T12:17:51.130Z,1.50
2023-04-15T12:20:54.798Z,1.27
2023-04-15T12:23:57.968Z,1.40
2023-04-15T12:27:08.703Z,1.50
2023-04-15T12:30:11.737Z,1.20
2023-04-15T12:33:14.177Z,1.45
2023-04-15T12:36:16.715Z,1.40
2023-04-15T12:39:22.738Z,1.40
2023-04-15T12:42:25.250Z,1.60
2023-04-15T12:45:28.909Z,1.48
2023-04-15T12:48:33.231Z,1.30
2023-04-15T12:51:35.551Z,1.38
2023-04-15T12:54:37.860Z,1.42
2023-04-15T12:57:40.181Z,1.65
2023-04-15T13:00:42.919Z,1.88
2023-04-15T13:03:45.520Z,1.70
2023-04-15T13:06:48.153Z,1.48
2023-04-15T13:09:50.612Z,1.88
2023-04-15T13:12:53.770Z,1.50
2023-04-15T13:15:56.528Z,1.50
2023-04-15T13:19:03.456Z,1.70
2023-04-15T13:22:07.024Z,1.70
2023-04-15T13:25:09.483Z,1.77
2023-04-15T13:28:12.062Z,1.75
2023-04-15T13:31:14.438Z,1.38
2023-04-15T13:34:16.747Z,1.40
2023-04-15T13:37:19.035Z,1.23
2023-04-15T13:40:22.350Z,1.35
2023-04-15T13:43:24.598Z,1.40
2023-04-15T13:46:26.932Z,1.58
2023-04-15T13:49:29.524Z,1.60
2023-04-15T13:52:31.767Z,2.03
2023-04-15T13:55:35.560Z,3.00
2023-04-15T13:58:38.588Z,2.10
2023-04-15T14:04:46.820Z,2.50
2023-04-15T14:07:49.047Z,1.90
2023-04-15T14:10:51.263Z,1.40
2023-04-15T14:13:53.527Z,1.30
2023-04-15T14:16:56.733Z,1.80
2023-04-15T14:19:59.033Z,1.50
2023-04-15T14:23:01.317Z,1.90
2023-04-15T14:26:03.594Z,1.52
2023-04-15T14:29:06.013Z,2.45
2023-04-15T14:32:11.327Z,4.13
2023-04-15T14:35:14.834Z,4.50
2023-04-15T14:38:17.105Z,4.20
2023-04-15T14:41:19.440Z,4.88
2023-04-15T14:44:21.662Z,3.35
2023-04-15T14:47:24.223Z,3.42
2023-04-15T14:50:26.620Z,3.58
2023-04-15T14:53:28.866Z,4.78
2023-04-15T14:56:31.206Z,3.03
2023-04-15T14:59:33.495Z,2.55
2023-04-15T15:02:39.677Z,1.60
2023-04-15T15:05:45.182Z,1.73
2023-04-15T15:08:49.166Z,1.70
2023-04-15T15:11:51.427Z,1.67
2023-04-15T15:14:56.118Z,1.70
2023-04-15T15:17:58.595Z,1.48
2023-04-15T15:21:01.031Z,1.60
2023-04-15T15:24:03.362Z,1.40
2023-04-15T15:27:05.881Z,1.52
2023-04-15T15:30:08.699Z,1.42
2023-04-15T15:33:11.107Z,1.67
2023-04-15T15:36:13.379Z,4.72
2023-04-15T15:39:16.027Z,3.95
2023-04-15T15:42:21.576Z,2.10
2023-04-15T15:45:23.830Z,2.00
2023-04-15T15:48:26.129Z,2.40
2023-04-15T15:51:28.796Z,2.10
2023-04-15T15:54:31.941Z,2.20
2023-04-15T16:00:36.721Z,2.15
2023-04-15T16:03:39.518Z,2.78
2023-04-15T16:06:43.143Z,2.42
2023-04-15T16:09:45.406Z,3.13
2023-04-15T16:12:47.774Z,2.42
2023-04-15T16:15:50.321Z,3.05
2023-04-15T16:18:52.578Z,7.78
2023-04-15T16:21:54.862Z,3.05
2023-04-15T16:24:57.217Z,3.20
2023-04-15T16:28:08.603Z,2.40
2023-04-15T16:31:17.191Z,3.40
2023-04-15T16:34:19.964Z,3.40
2023-04-15T16:37:22.198Z,3.40
2023-04-15T16:40:24.995Z,2.40
2023-04-15T16:43:28.023Z,2.60
2023-04-15T16:46:30.981Z,2.65
2023-04-15T16:52:37.142Z,2.70
2023-04-15T16:55:39.918Z,3.22
2023-04-15T16:58:42.257Z,3.10
2023-04-15T17:01:44.768Z,3.72
2023-04-15T17:04:47.000Z,3.10
2023-04-15T17:07:49.231Z,3.55
2023-04-15T17:10:51.902Z,3.90
2023-04-15T17:13:54.364Z,3.53
2023-04-15T17:16:56.595Z,3.95
2023-04-15T17:19:58.880Z,4.38
2023-04-15T17:23:01.173Z,3.90
2023-04-15T17:26:03.478Z,4.47
2023-04-15T17:29:06.326Z,4.18
2023-04-15T17:32:10.213Z,4.28
2023-04-15T17:35:12.551Z,4.22
2023-04-15T17:38:14.990Z,3.90
2023-04-15T17:41:17.261Z,3.88
2023-04-15T17:44:20.270Z,19.60
2023-04-15T17:59:32.826Z,4.68
2023-04-15T18:02:37.237Z,5.10
2023-04-15T18:05:41.997Z,5.07
2023-04-15T18:08:44.881Z,5.43
2023-04-15T18:11:48.422Z,4.35
2023-04-15T18:14:50.815Z,5.28
2023-04-15T18:17:53.194Z,5.22
2023-04-15T18:20:56.063Z,4.57
2023-04-15T18:24:04.010Z,5.85
2023-04-15T18:27:06.652Z,10.38
2023-04-15T18:30:10.526Z,20.65
2023-04-15T18:33:12.886Z,5.30
2023-04-15T18:36:15.160Z,4.40
2023-04-15T18:39:17.383Z,4.65
2023-04-15T18:42:20.394Z,5.03
2023-04-15T18:45:22.662Z,4.40
2023-04-15T18:48:26.371Z,4.32
2023-04-15T18:51:28.626Z,5.43
2023-04-15T18:54:30.937Z,4.93
2023-04-15T18:57:37.603Z,5.45
2023-04-15T19:00:41.838Z,5.32
2023-04-15T19:03:44.328Z,6.40
2023-04-15T19:06:49.805Z,5.72
2023-04-15T19:09:53.122Z,6.43
2023-04-15T19:12:55.648Z,7.47
2023-04-15T19:15:57.983Z,8.98
2023-04-15T19:19:00.417Z,7.63
2023-04-15T19:22:03.505Z,7.30
2023-04-15T19:25:06.339Z,7.50
2023-04-15T19:28:08.665Z,7.90
2023-04-15T19:31:36.077Z,7.25
2023-04-15T19:34:38.384Z,7.85
2023-04-15T19:37:40.729Z,7.18
2023-04-15T19:40:42.960Z,7.10
2023-04-15T19:43:45.314Z,7.78
2023-04-15T19:46:50.007Z,8.10
2023-04-15T19:49:52.745Z,6.90
2023-04-15T19:52:55.238Z,7.88
2023-04-15T19:55:57.478Z,8.88
2023-04-15T19:58:59.878Z,9.18
2023-04-15T20:02:02.680Z,8.50
2023-04-15T20:05:09.667Z,8.45
2023-04-15T20:08:12.038Z,8.57
2023-04-15T20:11:15.152Z,9.40
2023-04-15T20:14:17.904Z,9.32
2023-04-15T20:17:20.452Z,9.25
2023-04-15T20:20:23.085Z,8.65
2023-04-15T20:23:25.419Z,31.88
2023-04-15T20:26:27.705Z,75.90
2023-04-15T20:29:29.917Z,20.90
2023-04-15T20:32:36.112Z,8.77
2023-04-15T20:35:38.985Z,9.43
2023-04-15T20:38:41.404Z,8.90
2023-04-15T20:41:43.776Z,9.13
2023-04-15T20:44:48.870Z,9.13
2023-04-15T20:47:51.225Z,8.35
2023-04-15T20:50:53.435Z,8.95
2023-04-15T20:53:55.747Z,8.15
2023-04-15T20:56:58.224Z,9.55
2023-04-15T21:00:00.528Z,9.52
2023-04-15T21:03:03.742Z,7.45
2023-04-15T21:06:06.108Z,8.43
2023-04-15T21:09:08.402Z,8.73
2023-04-15T21:12:11.251Z,8.27
2023-04-15T21:15:13.544Z,9.32
2023-04-15T21:18:15.971Z,8.50
2023-04-15T21:21:18.227Z,8.55
2023-04-15T21:24:20.605Z,8.15
2023-04-15T21:27:22.887Z,7.47
2023-04-15T21:30:25.593Z,8.98
2023-04-15T21:33:27.873Z,8.27
2023-04-15T21:36:30.211Z,9.30
2023-04-15T21:39:32.473Z,10.88
2023-04-15T21:42:34.868Z,9.15
2023-04-15T21:45:39.401Z,9.73
2023-04-15T21:48:41.930Z,10.15
2023-04-15T21:51:45.646Z,10.65
2023-04-15T21:54:47.927Z,11.68
2023-04-15T21:57:50.328Z,11.07
2023-04-15T22:00:57.386Z,12.60
2023-04-15T22:04:00.072Z,11.35
2023-04-15T22:07:02.617Z,10.98
2023-04-15T22:10:05.224Z,11.73
2023-04-15T22:13:11.176Z,10.35
2023-04-15T22:16:13.437Z,11.05
2023-04-15T22:19:15.725Z,10.27
2023-04-15T22:22:17.971Z,10.80
2023-04-15T22:25:22.372Z,11.00
2023-04-15T22:28:24.621Z,10.23
2023-04-15T22:31:27.014Z,11.38
2023-04-15T22:34:29.367Z,10.60
2023-04-15T22:37:31.619Z,11.18
2023-04-15T22:40:33.984Z,10.95
2023-04-15T22:43:36.268Z,10.70
2023-04-15T22:46:38.638Z,9.68
2023-04-15T22:49:41.498Z,10.13
2023-04-15T22:52:46.231Z,9.75
2023-04-15T22:55:49.002Z,6.43
2023-04-15T22:58:51.646Z,4.65
2023-04-15T23:01:54.006Z,5.03
2023-04-15T23:04:56.635Z,5.18
2023-04-15T23:07:58.917Z,5.00
2023-04-15T23:11:01.205Z,4.93
2023-04-15T23:14:03.459Z,4.47
2023-04-15T23:17:05.918Z,4.65
2023-04-15T23:20:08.464Z,6.38
2023-04-15T23:23:10.664Z,6.15
2023-04-15T23:26:12.932Z,7.43
2023-04-15T23:29:15.368Z,7.57
2023-04-15T23:32:17.709Z,8.50
2023-04-15T23:35:20.064Z,8.13
2023-04-15T23:38:22.294Z,8.10
2023-04-15T23:41:24.544Z,7.18
2023-04-15T23:44:27.110Z,8.13
2023-04-15T23:47:29.399Z,7.30
2023-04-15T23:50:31.715Z,7.60
2023-04-15T23:53:34.131Z,7.70
2023-04-15T23:56:36.628Z,8.07
2023-04-15T23:59:38.916Z,9.43
